sensor_id;sensor_type;location;lat;lon;timestamp;temperature;humidity
19214;DHT22;9741;51.020;5.304;2023-07-22T00:00:25;13.10;56.50
19214;DHT22;9741;51.020;5.304;2023-07-22T00:02:52;13.10;56.60
19214;DHT22;9741;51.020;5.304;2023-07-22T00:05:19;13.10;56.70
19214;DHT22;9741;51.020;5.304;2023-07-22T00:07:49;13.00;56.70
19214;DHT22;9741;51.020;5.304;2023-07-22T00:10:16;13.00;56.80
19214;DHT22;9741;51.020;5.304;2023-07-22T00:12:43;12.90;56.90
19214;DHT22;9741;51.020;5.304;2023-07-22T00:15:12;12.90;57.00
19214;DHT22;9741;51.020;5.304;2023-07-22T00:17:39;12.90;57.10
19214;DHT22;9741;51.020;5.304;2023-07-22T00:20:08;12.80;57.20
19214;DHT22;9741;51.020;5.304;2023-07-22T00:22:37;12.90;57.30
19214;DHT22;9741;51.020;5.304;2023-07-22T00:25:06;12.80;57.30
19214;DHT22;9741;51.020;5.304;2023-07-22T00:27:36;12.80;57.40
19214;DHT22;9741;51.020;5.304;2023-07-22T00:30:04;12.80;57.50
19214;DHT22;9741;51.020;5.304;2023-07-22T00:32:32;12.90;57.70
19214;DHT22;9741;51.020;5.304;2023-07-22T00:34:59;12.80;57.70
19214;DHT22;9741;51.020;5.304;2023-07-22T00:37:26;12.80;57.70
19214;DHT22;9741;51.020;5.304;2023-07-22T00:39:53;12.80;57.80
19214;DHT22;9741;51.020;5.304;2023-07-22T00:42:21;12.80;57.90
19214;DHT22;9741;51.020;5.304;2023-07-22T00:44:48;12.80;58.00
19214;DHT22;9741;51.020;5.304;2023-07-22T00:47:16;12.80;58.10
19214;DHT22;9741;51.020;5.304;2023-07-22T00:49:47;12.80;58.10
19214;DHT22;9741;51.020;5.304;2023-07-22T00:52:16;12.80;58.20
19214;DHT22;9741;51.020;5.304;2023-07-22T00:54:43;12.80;58.20
19214;DHT22;9741;51.020;5.304;2023-07-22T00:57:11;12.70;58.20
19214;DHT22;9741;51.020;5.304;2023-07-22T00:59:39;12.80;58.40
19214;DHT22;9741;51.020;5.304;2023-07-22T01:02:07;12.70;58.90
19214;DHT22;9741;51.020;5.304;2023-07-22T01:04:34;12.70;58.40
19214;DHT22;9741;51.020;5.304;2023-07-22T01:07:04;12.70;58.40
19214;DHT22;9741;51.020;5.304;2023-07-22T01:09:36;12.70;58.50
19214;DHT22;9741;51.020;5.304;2023-07-22T01:12:04;12.70;58.60
19214;DHT22;9741;51.020;5.304;2023-07-22T01:14:32;12.70;58.60
19214;DHT22;9741;51.020;5.304;2023-07-22T01:17:00;12.70;58.70
19214;DHT22;9741;51.020;5.304;2023-07-22T01:19:28;12.80;58.90
19214;DHT22;9741;51.020;5.304;2023-07-22T01:21:57;12.80;58.90
19214;DHT22;9741;51.020;5.304;2023-07-22T01:24:26;12.80;59.00
19214;DHT22;9741;51.020;5.304;2023-07-22T01:26:53;12.80;59.00
19214;DHT22;9741;51.020;5.304;2023-07-22T01:29:21;12.80;59.00
19214;DHT22;9741;51.020;5.304;2023-07-22T01:31:49;12.80;59.10
19214;DHT22;9741;51.020;5.304;2023-07-22T01:34:17;12.80;59.20
19214;DHT22;9741;51.020;5.304;2023-07-22T01:36:45;12.80;59.20
19214;DHT22;9741;51.020;5.304;2023-07-22T01:39:13;12.80;59.30
19214;DHT22;9741;51.020;5.304;2023-07-22T01:41:41;12.80;59.30
19214;DHT22;9741;51.020;5.304;2023-07-22T01:44:08;12.80;59.30
19214;DHT22;9741;51.020;5.304;2023-07-22T01:46:35;12.80;59.50
19214;DHT22;9741;51.020;5.304;2023-07-22T01:49:05;12.80;59.50
19214;DHT22;9741;51.020;5.304;2023-07-22T01:51:34;12.90;60.10
19214;DHT22;9741;51.020;5.304;2023-07-22T01:54:03;12.90;60.20
19214;DHT22;9741;51.020;5.304;2023-07-22T01:56:30;13.00;59.80
19214;DHT22;9741;51.020;5.304;2023-07-22T01:58:59;13.10;60.00
19214;DHT22;9741;51.020;5.304;2023-07-22T02:01:26;13.10;59.90
19214;DHT22;9741;51.020;5.304;2023-07-22T02:03:54;13.20;60.00
19214;DHT22;9741;51.020;5.304;2023-07-22T02:06:21;13.30;60.00
19214;DHT22;9741;51.020;5.304;2023-07-22T02:08:48;13.30;60.00
19214;DHT22;9741;51.020;5.304;2023-07-22T02:11:15;13.40;60.10
19214;DHT22;9741;51.020;5.304;2023-07-22T02:13:43;13.40;60.20
19214;DHT22;9741;51.020;5.304;2023-07-22T02:16:11;13.50;60.20
19214;DHT22;9741;51.020;5.304;2023-07-22T02:18:38;13.60;60.30
19214;DHT22;9741;51.020;5.304;2023-07-22T02:21:05;13.70;60.40
19214;DHT22;9741;51.020;5.304;2023-07-22T02:23:32;13.70;60.40
19214;DHT22;9741;51.020;5.304;2023-07-22T02:25:59;13.70;60.30
19214;DHT22;9741;51.020;5.304;2023-07-22T02:28:27;13.80;60.40
19214;DHT22;9741;51.020;5.304;2023-07-22T02:30:55;13.80;60.30
19214;DHT22;9741;51.020;5.304;2023-07-22T02:33:23;13.90;60.30
19214;DHT22;9741;51.020;5.304;2023-07-22T02:35:50;13.90;60.30
19214;DHT22;9741;51.020;5.304;2023-07-22T02:38:17;13.80;60.20
19214;DHT22;9741;51.020;5.304;2023-07-22T02:40:44;13.90;60.30
19214;DHT22;9741;51.020;5.304;2023-07-22T02:43:11;13.90;60.30
19214;DHT22;9741;51.020;5.304;2023-07-22T02:45:38;13.90;60.30
19214;DHT22;9741;51.020;5.304;2023-07-22T02:48:05;13.90;60.30
19214;DHT22;9741;51.020;5.304;2023-07-22T02:50:34;13.90;60.30
19214;DHT22;9741;51.020;5.304;2023-07-22T02:53:02;13.90;60.30
19214;DHT22;9741;51.020;5.304;2023-07-22T02:55:29;13.80;60.20
19214;DHT22;9741;51.020;5.304;2023-07-22T02:57:56;13.80;60.20
19214;DHT22;9741;51.020;5.304;2023-07-22T03:00:23;13.80;60.30
19214;DHT22;9741;51.020;5.304;2023-07-22T03:02:51;13.70;60.20
19214;DHT22;9741;51.020;5.304;2023-07-22T03:05:19;13.70;60.20
19214;DHT22;9741;51.020;5.304;2023-07-22T03:07:48;13.60;60.10
19214;DHT22;9741;51.020;5.304;2023-07-22T03:10:15;13.60;60.10
19214;DHT22;9741;51.020;5.304;2023-07-22T03:12:42;13.50;60.00
19214;DHT22;9741;51.020;5.304;2023-07-22T03:15:10;13.50;60.10
19214;DHT22;9741;51.020;5.304;2023-07-22T03:17:39;13.40;60.00
19214;DHT22;9741;51.020;5.304;2023-07-22T03:20:08;13.40;60.10
19214;DHT22;9741;51.020;5.304;2023-07-22T03:22:39;13.30;60.20
19214;DHT22;9741;51.020;5.304;2023-07-22T03:25:08;13.20;60.20
19214;DHT22;9741;51.020;5.304;2023-07-22T03:27:36;13.20;60.30
19214;DHT22;9741;51.020;5.304;2023-07-22T03:30:04;13.20;60.40
19214;DHT22;9741;51.020;5.304;2023-07-22T03:32:35;13.20;60.50
19214;DHT22;9741;51.020;5.304;2023-07-22T03:35:02;13.20;60.50
19214;DHT22;9741;51.020;5.304;2023-07-22T03:37:29;13.20;60.60
19214;DHT22;9741;51.020;5.304;2023-07-22T03:39:57;13.20;60.50
19214;DHT22;9741;51.020;5.304;2023-07-22T03:42:25;13.20;60.50
19214;DHT22;9741;51.020;5.304;2023-07-22T03:44:52;13.20;60.50
19214;DHT22;9741;51.020;5.304;2023-07-22T03:47:19;13.30;60.60
19214;DHT22;9741;51.020;5.304;2023-07-22T03:49:46;13.30;60.70
19214;DHT22;9741;51.020;5.304;2023-07-22T03:52:13;13.30;60.80
19214;DHT22;9741;51.020;5.304;2023-07-22T03:54:43;13.30;60.80
19214;DHT22;9741;51.020;5.304;2023-07-22T03:57:10;13.30;60.80
19214;DHT22;9741;51.020;5.304;2023-07-22T03:59:39;13.30;60.80
19214;DHT22;9741;51.020;5.304;2023-07-22T04:02:06;13.30;60.90
19214;DHT22;9741;51.020;5.304;2023-07-22T04:04:33;13.30;60.90
19214;DHT22;9741;51.020;5.304;2023-07-22T04:07:00;13.40;61.00
19214;DHT22;9741;51.020;5.304;2023-07-22T04:09:28;13.40;61.50
19214;DHT22;9741;51.020;5.304;2023-07-22T04:11:54;13.40;61.00
19214;DHT22;9741;51.020;5.304;2023-07-22T04:14:22;13.50;61.10
19214;DHT22;9741;51.020;5.304;2023-07-22T04:16:50;13.50;61.00
19214;DHT22;9741;51.020;5.304;2023-07-22T04:19:17;13.50;61.00
19214;DHT22;9741;51.020;5.304;2023-07-22T04:21:44;13.60;61.10
19214;DHT22;9741;51.020;5.304;2023-07-22T04:24:11;13.60;61.10
19214;DHT22;9741;51.020;5.304;2023-07-22T04:26:40;13.70;61.20
19214;DHT22;9741;51.020;5.304;2023-07-22T04:29:07;13.80;61.20
19214;DHT22;9741;51.020;5.304;2023-07-22T04:31:34;13.90;61.30
19214;DHT22;9741;51.020;5.304;2023-07-22T04:34:02;14.00;61.20
19214;DHT22;9741;51.020;5.304;2023-07-22T04:36:29;14.10;61.20
19214;DHT22;9741;51.020;5.304;2023-07-22T04:38:56;14.20;61.20
19214;DHT22;9741;51.020;5.304;2023-07-22T04:41:23;14.30;61.20
19214;DHT22;9741;51.020;5.304;2023-07-22T04:43:51;14.30;61.50
19214;DHT22;9741;51.020;5.304;2023-07-22T04:46:18;14.40;61.00
19214;DHT22;9741;51.020;5.304;2023-07-22T04:48:46;14.50;60.90
19214;DHT22;9741;51.020;5.304;2023-07-22T04:51:14;14.60;60.90
19214;DHT22;9741;51.020;5.304;2023-07-22T04:53:41;14.70;60.90
19214;DHT22;9741;51.020;5.304;2023-07-22T04:56:08;14.70;60.80
19214;DHT22;9741;51.020;5.304;2023-07-22T04:58:35;14.80;60.70
19214;DHT22;9741;51.020;5.304;2023-07-22T05:01:02;14.80;60.60
19214;DHT22;9741;51.020;5.304;2023-07-22T05:03:29;14.90;60.60
19214;DHT22;9741;51.020;5.304;2023-07-22T05:05:56;14.90;60.50
19214;DHT22;9741;51.020;5.304;2023-07-22T05:08:25;15.00;60.60
19214;DHT22;9741;51.020;5.304;2023-07-22T05:10:52;15.10;60.50
19214;DHT22;9741;51.020;5.304;2023-07-22T05:13:20;15.20;60.50
19214;DHT22;9741;51.020;5.304;2023-07-22T05:15:47;15.30;60.50
19214;DHT22;9741;51.020;5.304;2023-07-22T05:18:14;15.40;60.40
19214;DHT22;9741;51.020;5.304;2023-07-22T05:20:41;15.60;60.40
19214;DHT22;9741;51.020;5.304;2023-07-22T05:23:08;15.70;60.30
19214;DHT22;9741;51.020;5.304;2023-07-22T05:25:36;15.90;60.20
19214;DHT22;9741;51.020;5.304;2023-07-22T05:28:04;16.10;60.10
19214;DHT22;9741;51.020;5.304;2023-07-22T05:30:31;16.30;60.00
19214;DHT22;9741;51.020;5.304;2023-07-22T05:32:57;16.40;59.80
19214;DHT22;9741;51.020;5.304;2023-07-22T05:35:25;16.50;59.50
19214;DHT22;9741;51.020;5.304;2023-07-22T05:37:52;16.60;59.80
19214;DHT22;9741;51.020;5.304;2023-07-22T05:40:18;16.70;59.20
19214;DHT22;9741;51.020;5.304;2023-07-22T05:42:47;16.80;59.00
19214;DHT22;9741;51.020;5.304;2023-07-22T05:45:14;16.90;58.90
19214;DHT22;9741;51.020;5.304;2023-07-22T05:47:41;17.00;59.40
19214;DHT22;9741;51.020;5.304;2023-07-22T05:50:09;17.10;58.70
19214;DHT22;9741;51.020;5.304;2023-07-22T05:52:36;17.10;58.50
19214;DHT22;9741;51.020;5.304;2023-07-22T05:55:04;17.10;58.40
19214;DHT22;9741;51.020;5.304;2023-07-22T05:57:31;17.20;58.30
19214;DHT22;9741;51.020;5.304;2023-07-22T06:00:00;17.20;58.30
19214;DHT22;9741;51.020;5.304;2023-07-22T06:02:28;17.20;58.30
19214;DHT22;9741;51.020;5.304;2023-07-22T06:04:56;17.30;58.30
19214;DHT22;9741;51.020;5.304;2023-07-22T06:07:24;17.40;58.20
19214;DHT22;9741;51.020;5.304;2023-07-22T06:09:51;17.50;58.10
19214;DHT22;9741;51.020;5.304;2023-07-22T06:12:18;17.60;58.00
19214;DHT22;9741;51.020;5.304;2023-07-22T06:14:45;17.60;57.80
19214;DHT22;9741;51.020;5.304;2023-07-22T06:17:14;17.70;57.80
19214;DHT22;9741;51.020;5.304;2023-07-22T06:19:41;17.80;57.70
19214;DHT22;9741;51.020;5.304;2023-07-22T06:22:07;17.90;57.60
19214;DHT22;9741;51.020;5.304;2023-07-22T06:24:34;17.90;57.40
19214;DHT22;9741;51.020;5.304;2023-07-22T06:27:02;18.00;57.40
19214;DHT22;9741;51.020;5.304;2023-07-22T06:29:29;18.20;57.40
19214;DHT22;9741;51.020;5.304;2023-07-22T06:31:56;18.30;57.20
19214;DHT22;9741;51.020;5.304;2023-07-22T06:34:24;18.50;57.10
19214;DHT22;9741;51.020;5.304;2023-07-22T06:36:51;18.70;57.10
19214;DHT22;9741;51.020;5.304;2023-07-22T06:39:18;19.10;57.10
19214;DHT22;9741;51.020;5.304;2023-07-22T06:41:45;19.40;56.80
19214;DHT22;9741;51.020;5.304;2023-07-22T06:44:12;19.90;56.70
19214;DHT22;9741;51.020;5.304;2023-07-22T06:46:39;20.70;56.90
19214;DHT22;9741;51.020;5.304;2023-07-22T06:49:06;21.70;56.00
19214;DHT22;9741;51.020;5.304;2023-07-22T06:51:35;22.20;54.40
19214;DHT22;9741;51.020;5.304;2023-07-22T06:54:03;22.40;53.40
19214;DHT22;9741;51.020;5.304;2023-07-22T06:56:30;22.40;52.70
19214;DHT22;9741;51.020;5.304;2023-07-22T06:58:57;22.40;52.40
19214;DHT22;9741;51.020;5.304;2023-07-22T07:01:24;22.50;52.40
19214;DHT22;9741;51.020;5.304;2023-07-22T07:03:51;22.80;52.40
19214;DHT22;9741;51.020;5.304;2023-07-22T07:06:18;23.10;52.00
19214;DHT22;9741;51.020;5.304;2023-07-22T07:08:46;23.30;51.50
19214;DHT22;9741;51.020;5.304;2023-07-22T07:11:14;23.30;50.90
19214;DHT22;9741;51.020;5.304;2023-07-22T07:13:41;23.30;50.60
19214;DHT22;9741;51.020;5.304;2023-07-22T07:16:21;23.20;50.20
19214;DHT22;9741;51.020;5.304;2023-07-22T07:18:49;23.20;50.20
19214;DHT22;9741;51.020;5.304;2023-07-22T07:21:17;23.10;50.20
19214;DHT22;9741;51.020;5.304;2023-07-22T07:23:44;23.10;50.20
19214;DHT22;9741;51.020;5.304;2023-07-22T07:26:13;23.20;50.20
19214;DHT22;9741;51.020;5.304;2023-07-22T07:28:40;23.30;49.90
19214;DHT22;9741;51.020;5.304;2023-07-22T07:31:07;23.50;49.90
19214;DHT22;9741;51.020;5.304;2023-07-22T07:33:34;23.60;49.50
19214;DHT22;9741;51.020;5.304;2023-07-22T07:36:01;23.60;49.40
19214;DHT22;9741;51.020;5.304;2023-07-22T07:38:28;23.50;49.40
19214;DHT22;9741;51.020;5.304;2023-07-22T07:40:56;23.60;49.60
19214;DHT22;9741;51.020;5.304;2023-07-22T07:43:25;23.80;49.60
19214;DHT22;9741;51.020;5.304;2023-07-22T07:46:14;24.10;49.30
19214;DHT22;9741;51.020;5.304;2023-07-22T07:48:43;24.50;49.10
19214;DHT22;9741;51.020;5.304;2023-07-22T07:51:12;24.90;48.80
19214;DHT22;9741;51.020;5.304;2023-07-22T07:53:39;25.30;48.30
19214;DHT22;9741;51.020;5.304;2023-07-22T07:56:06;25.60;47.70
19214;DHT22;9741;51.020;5.304;2023-07-22T07:58:36;25.90;48.00
19214;DHT22;9741;51.020;5.304;2023-07-22T08:01:03;26.20;46.90
19214;DHT22;9741;51.020;5.304;2023-07-22T08:03:31;26.30;46.50
19214;DHT22;9741;51.020;5.304;2023-07-22T08:05:58;26.40;46.30
19214;DHT22;9741;51.020;5.304;2023-07-22T08:08:25;26.50;46.00
19214;DHT22;9741;51.020;5.304;2023-07-22T08:10:59;26.30;45.70
19214;DHT22;9741;51.020;5.304;2023-07-22T08:13:26;26.20;45.70
19214;DHT22;9741;51.020;5.304;2023-07-22T08:15:57;26.20;45.90
19214;DHT22;9741;51.020;5.304;2023-07-22T08:18:24;26.30;45.90
19214;DHT22;9741;51.020;5.304;2023-07-22T08:20:52;26.40;45.70
19214;DHT22;9741;51.020;5.304;2023-07-22T08:23:19;26.40;45.40
19214;DHT22;9741;51.020;5.304;2023-07-22T08:25:46;26.30;45.30
19214;DHT22;9741;51.020;5.304;2023-07-22T08:28:13;26.10;45.30
19214;DHT22;9741;51.020;5.304;2023-07-22T08:30:40;25.80;45.30
19214;DHT22;9741;51.020;5.304;2023-07-22T08:33:09;25.50;45.40
19214;DHT22;9741;51.020;5.304;2023-07-22T08:35:37;25.20;45.50
19214;DHT22;9741;51.020;5.304;2023-07-22T08:38:05;25.00;45.90
19214;DHT22;9741;51.020;5.304;2023-07-22T08:40:35;25.20;46.20
19214;DHT22;9741;51.020;5.304;2023-07-22T08:43:04;25.40;46.10
19214;DHT22;9741;51.020;5.304;2023-07-22T08:45:32;25.50;45.70
19214;DHT22;9741;51.020;5.304;2023-07-22T08:48:02;25.50;45.70
19214;DHT22;9741;51.020;5.304;2023-07-22T08:50:37;25.40;45.60
19214;DHT22;9741;51.020;5.304;2023-07-22T08:53:06;25.10;45.60
19214;DHT22;9741;51.020;5.304;2023-07-22T08:55:33;24.80;45.80
19214;DHT22;9741;51.020;5.304;2023-07-22T08:58:02;24.60;46.00
19214;DHT22;9741;51.020;5.304;2023-07-22T09:00:29;24.50;46.80
19214;DHT22;9741;51.020;5.304;2023-07-22T09:02:57;24.40;46.50
19214;DHT22;9741;51.020;5.304;2023-07-22T09:05:25;24.30;46.60
19214;DHT22;9741;51.020;5.304;2023-07-22T09:07:54;24.40;46.90
19214;DHT22;9741;51.020;5.304;2023-07-22T09:10:23;24.50;46.90
19214;DHT22;9741;51.020;5.304;2023-07-22T09:12:52;24.60;46.80
19214;DHT22;9741;51.020;5.304;2023-07-22T09:15:19;24.50;46.60
19214;DHT22;9741;51.020;5.304;2023-07-22T09:17:47;24.60;46.70
19214;DHT22;9741;51.020;5.304;2023-07-22T09:20:14;24.60;46.70
19214;DHT22;9741;51.020;5.304;2023-07-22T09:22:44;24.70;46.70
19214;DHT22;9741;51.020;5.304;2023-07-22T09:25:17;24.90;46.70
19214;DHT22;9741;51.020;5.304;2023-07-22T09:27:45;25.00;46.50
19214;DHT22;9741;51.020;5.304;2023-07-22T09:30:24;25.20;46.40
19214;DHT22;9741;51.020;5.304;2023-07-22T09:32:52;25.40;46.00
19214;DHT22;9741;51.020;5.304;2023-07-22T09:35:23;25.60;45.90
19214;DHT22;9741;51.020;5.304;2023-07-22T09:37:52;25.80;45.60
19214;DHT22;9741;51.020;5.304;2023-07-22T09:40:23;26.00;45.40
19214;DHT22;9741;51.020;5.304;2023-07-22T09:42:51;26.10;45.10
19214;DHT22;9741;51.020;5.304;2023-07-22T09:45:21;26.10;44.90
19214;DHT22;9741;51.020;5.304;2023-07-22T09:47:50;26.20;45.00
19214;DHT22;9741;51.020;5.304;2023-07-22T09:50:26;26.40;44.90
19214;DHT22;9741;51.020;5.304;2023-07-22T09:52:55;26.60;44.50
19214;DHT22;9741;51.020;5.304;2023-07-22T09:55:25;26.80;44.30
19214;DHT22;9741;51.020;5.304;2023-07-22T09:57:56;26.80;43.90
19214;DHT22;9741;51.020;5.304;2023-07-22T10:00:24;26.70;43.50
19214;DHT22;9741;51.020;5.304;2023-07-22T10:02:53;26.50;43.10
19214;DHT22;9741;51.020;5.304;2023-07-22T10:05:22;26.40;43.10
19214;DHT22;9741;51.020;5.304;2023-07-22T10:07:52;26.30;43.10
19214;DHT22;9741;51.020;5.304;2023-07-22T10:10:22;26.40;43.30
19214;DHT22;9741;51.020;5.304;2023-07-22T10:12:51;26.40;43.10
19214;DHT22;9741;51.020;5.304;2023-07-22T10:15:20;26.50;43.10
19214;DHT22;9741;51.020;5.304;2023-07-22T10:17:49;26.60;42.90
19214;DHT22;9741;51.020;5.304;2023-07-22T10:20:16;26.60;42.70
19214;DHT22;9741;51.020;5.304;2023-07-22T10:22:46;26.60;42.60
19214;DHT22;9741;51.020;5.304;2023-07-22T10:25:15;26.60;42.40
19214;DHT22;9741;51.020;5.304;2023-07-22T10:27:42;26.70;42.20
19214;DHT22;9741;51.020;5.304;2023-07-22T10:30:13;26.70;42.00
19214;DHT22;9741;51.020;5.304;2023-07-22T10:32:42;26.80;41.70
19214;DHT22;9741;51.020;5.304;2023-07-22T10:35:10;26.80;41.60
19214;DHT22;9741;51.020;5.304;2023-07-22T10:37:37;26.80;41.50
19214;DHT22;9741;51.020;5.304;2023-07-22T10:40:25;26.90;41.40
19214;DHT22;9741;51.020;5.304;2023-07-22T10:42:54;27.00;41.00
19214;DHT22;9741;51.020;5.304;2023-07-22T10:45:30;27.00;40.70
19214;DHT22;9741;51.020;5.304;2023-07-22T10:48:05;27.00;40.50
19214;DHT22;9741;51.020;5.304;2023-07-22T10:50:40;27.10;40.50
19214;DHT22;9741;51.020;5.304;2023-07-22T10:53:10;27.20;40.40
19214;DHT22;9741;51.020;5.304;2023-07-22T10:56:04;27.30;40.40
19214;DHT22;9741;51.020;5.304;2023-07-22T10:58:32;27.30;39.90
19214;DHT22;9741;51.020;5.304;2023-07-22T11:01:23;27.20;39.70
19214;DHT22;9741;51.020;5.304;2023-07-22T11:04:12;27.30;39.50
19214;DHT22;9741;51.020;5.304;2023-07-22T11:06:52;27.30;39.50
19214;DHT22;9741;51.020;5.304;2023-07-22T11:09:42;27.40;39.10
19214;DHT22;9741;51.020;5.304;2023-07-22T11:12:13;27.40;38.60
19214;DHT22;9741;51.020;5.304;2023-07-22T11:14:46;27.30;38.40
19214;DHT22;9741;51.020;5.304;2023-07-22T11:17:15;27.20;38.20
19214;DHT22;9741;51.020;5.304;2023-07-22T11:19:43;27.10;38.10
19214;DHT22;9741;51.020;5.304;2023-07-22T11:22:10;27.10;38.20
19214;DHT22;9741;51.020;5.304;2023-07-22T11:24:38;27.10;38.00
19214;DHT22;9741;51.020;5.304;2023-07-22T11:27:06;27.10;38.40
19214;DHT22;9741;51.020;5.304;2023-07-22T11:29:33;27.10;37.70
19214;DHT22;9741;51.020;5.304;2023-07-22T11:32:02;27.10;37.60
19214;DHT22;9741;51.020;5.304;2023-07-22T11:34:31;27.00;37.50
19214;DHT22;9741;51.020;5.304;2023-07-22T11:36:58;27.00;37.80
19214;DHT22;9741;51.020;5.304;2023-07-22T11:39:26;27.10;38.00
19214;DHT22;9741;51.020;5.304;2023-07-22T11:41:59;27.10;37.80
19214;DHT22;9741;51.020;5.304;2023-07-22T11:44:27;27.20;37.70
19214;DHT22;9741;51.020;5.304;2023-07-22T11:46:57;27.20;37.80
19214;DHT22;9741;51.020;5.304;2023-07-22T11:49:29;27.40;37.90
19214;DHT22;9741;51.020;5.304;2023-07-22T11:51:59;27.40;37.30
19214;DHT22;9741;51.020;5.304;2023-07-22T11:54:27;27.40;37.30
19214;DHT22;9741;51.020;5.304;2023-07-22T11:56:55;27.30;37.20
19214;DHT22;9741;51.020;5.304;2023-07-22T11:59:36;27.20;37.30
19214;DHT22;9741;51.020;5.304;2023-07-22T12:02:03;27.20;37.30
19214;DHT22;9741;51.020;5.304;2023-07-22T12:04:32;27.20;37.80
19214;DHT22;9741;51.020;5.304;2023-07-22T12:07:01;27.20;37.00
19214;DHT22;9741;51.020;5.304;2023-07-22T12:09:29;27.30;36.90
19214;DHT22;9741;51.020;5.304;2023-07-22T12:11:57;27.30;36.90
19214;DHT22;9741;51.020;5.304;2023-07-22T12:14:32;27.40;36.90
19214;DHT22;9741;51.020;5.304;2023-07-22T12:17:00;27.50;36.70
19214;DHT22;9741;51.020;5.304;2023-07-22T12:19:27;27.50;36.60
19214;DHT22;9741;51.020;5.304;2023-07-22T12:21:54;27.60;36.50
19214;DHT22;9741;51.020;5.304;2023-07-22T12:24:23;27.60;36.20
19214;DHT22;9741;51.020;5.304;2023-07-22T12:26:50;27.50;36.00
19214;DHT22;9741;51.020;5.304;2023-07-22T12:29:17;27.50;36.20
19214;DHT22;9741;51.020;5.304;2023-07-22T12:31:44;27.40;36.20
19214;DHT22;9741;51.020;5.304;2023-07-22T12:34:11;27.40;36.20
19214;DHT22;9741;51.020;5.304;2023-07-22T12:36:38;27.40;36.20
19214;DHT22;9741;51.020;5.304;2023-07-22T12:39:05;27.30;36.20
19214;DHT22;9741;51.020;5.304;2023-07-22T12:41:33;27.40;36.10
19214;DHT22;9741;51.020;5.304;2023-07-22T12:44:00;27.30;36.00
19214;DHT22;9741;51.020;5.304;2023-07-22T12:46:27;27.40;36.10
19214;DHT22;9741;51.020;5.304;2023-07-22T12:48:54;27.50;35.90
19214;DHT22;9741;51.020;5.304;2023-07-22T12:51:21;27.50;35.70
19214;DHT22;9741;51.020;5.304;2023-07-22T12:53:48;27.60;35.60
19214;DHT22;9741;51.020;5.304;2023-07-22T12:56:16;27.60;35.70
19214;DHT22;9741;51.020;5.304;2023-07-22T12:58:44;27.60;35.30
19214;DHT22;9741;51.020;5.304;2023-07-22T13:01:12;27.60;35.50
19214;DHT22;9741;51.020;5.304;2023-07-22T13:03:39;27.60;35.20
19214;DHT22;9741;51.020;5.304;2023-07-22T13:06:06;27.50;35.20
19214;DHT22;9741;51.020;5.304;2023-07-22T13:08:33;27.40;35.00
19214;DHT22;9741;51.020;5.304;2023-07-22T13:11:00;27.20;35.00
19214;DHT22;9741;51.020;5.304;2023-07-22T13:13:27;27.20;35.20
19214;DHT22;9741;51.020;5.304;2023-07-22T13:15:55;27.30;35.50
19214;DHT22;9741;51.020;5.304;2023-07-22T13:18:22;27.40;35.40
19214;DHT22;9741;51.020;5.304;2023-07-22T13:20:49;27.30;35.00
19214;DHT22;9741;51.020;5.304;2023-07-22T13:23:16;27.20;35.10
19214;DHT22;9741;51.020;5.304;2023-07-22T13:25:43;27.00;35.20
19214;DHT22;9741;51.020;5.304;2023-07-22T13:28:10;27.00;35.60
19214;DHT22;9741;51.020;5.304;2023-07-22T13:30:38;27.00;35.60
19214;DHT22;9741;51.020;5.304;2023-07-22T13:33:06;27.00;35.60
19214;DHT22;9741;51.020;5.304;2023-07-22T13:35:33;27.00;35.70
19214;DHT22;9741;51.020;5.304;2023-07-22T13:38:00;27.00;35.70
19214;DHT22;9741;51.020;5.304;2023-07-22T13:40:27;27.00;35.80
19214;DHT22;9741;51.020;5.304;2023-07-22T13:42:54;27.10;35.70
19214;DHT22;9741;51.020;5.304;2023-07-22T13:45:21;27.10;35.70
19214;DHT22;9741;51.020;5.304;2023-07-22T13:47:48;27.00;35.60
19214;DHT22;9741;51.020;5.304;2023-07-22T13:50:16;26.90;35.50
19214;DHT22;9741;51.020;5.304;2023-07-22T13:52:44;26.90;35.50
19214;DHT22;9741;51.020;5.304;2023-07-22T13:55:11;26.90;35.60
19214;DHT22;9741;51.020;5.304;2023-07-22T13:57:38;26.90;35.60
19214;DHT22;9741;51.020;5.304;2023-07-22T14:00:06;27.10;35.40
19214;DHT22;9741;51.020;5.304;2023-07-22T14:02:34;27.00;35.10
19214;DHT22;9741;51.020;5.304;2023-07-22T14:05:01;27.10;35.00
19214;DHT22;9741;51.020;5.304;2023-07-22T14:07:30;27.00;34.90
19214;DHT22;9741;51.020;5.304;2023-07-22T14:09:57;27.10;35.00
19214;DHT22;9741;51.020;5.304;2023-07-22T14:12:24;27.20;35.00
19214;DHT22;9741;51.020;5.304;2023-07-22T14:14:51;27.20;35.00
19214;DHT22;9741;51.020;5.304;2023-07-22T14:17:18;27.30;35.00
19214;DHT22;9741;51.020;5.304;2023-07-22T14:19:45;27.30;35.00
19214;DHT22;9741;51.020;5.304;2023-07-22T14:22:13;27.30;34.80
19214;DHT22;9741;51.020;5.304;2023-07-22T14:24:41;27.30;34.60
19214;DHT22;9741;51.020;5.304;2023-07-22T14:27:08;27.40;34.70
19214;DHT22;9741;51.020;5.304;2023-07-22T14:29:35;27.50;34.60
19214;DHT22;9741;51.020;5.304;2023-07-22T14:32:02;27.50;34.50
19214;DHT22;9741;51.020;5.304;2023-07-22T14:34:29;27.50;34.10
19214;DHT22;9741;51.020;5.304;2023-07-22T14:36:56;27.50;34.00
19214;DHT22;9741;51.020;5.304;2023-07-22T14:39:23;27.50;33.80
19214;DHT22;9741;51.020;5.304;2023-07-22T14:41:52;27.50;33.70
19214;DHT22;9741;51.020;5.304;2023-07-22T14:44:19;27.60;33.70
19214;DHT22;9741;51.020;5.304;2023-07-22T14:46:46;27.60;33.70
19214;DHT22;9741;51.020;5.304;2023-07-22T14:49:13;27.60;33.60
19214;DHT22;9741;51.020;5.304;2023-07-22T14:51:40;27.60;33.50
19214;DHT22;9741;51.020;5.304;2023-07-22T14:54:07;27.70;33.70
19214;DHT22;9741;51.020;5.304;2023-07-22T14:56:34;27.80;33.60
19214;DHT22;9741;51.020;5.304;2023-07-22T14:59:02;27.80;33.50
19214;DHT22;9741;51.020;5.304;2023-07-22T15:01:37;27.90;33.40
19214;DHT22;9741;51.020;5.304;2023-07-22T15:04:04;27.80;33.00
19214;DHT22;9741;51.020;5.304;2023-07-22T15:06:31;27.70;32.90
19214;DHT22;9741;51.020;5.304;2023-07-22T15:08:58;27.60;32.80
19214;DHT22;9741;51.020;5.304;2023-07-22T15:11:25;27.40;32.70
19214;DHT22;9741;51.020;5.304;2023-07-22T15:13:52;27.30;32.90
19214;DHT22;9741;51.020;5.304;2023-07-22T15:16:21;27.30;33.10
19214;DHT22;9741;51.020;5.304;2023-07-22T15:18:48;27.20;33.10
19214;DHT22;9741;51.020;5.304;2023-07-22T15:21:15;27.10;33.10
19214;DHT22;9741;51.020;5.304;2023-07-22T15:23:42;27.00;33.20
19214;DHT22;9741;51.020;5.304;2023-07-22T15:26:09;26.90;33.20
19214;DHT22;9741;51.020;5.304;2023-07-22T15:28:36;26.80;33.30
19214;DHT22;9741;51.020;5.304;2023-07-22T15:31:03;26.80;33.40
19214;DHT22;9741;51.020;5.304;2023-07-22T15:33:31;26.70;33.50
19214;DHT22;9741;51.020;5.304;2023-07-22T15:35:58;26.60;33.40
19214;DHT22;9741;51.020;5.304;2023-07-22T15:38:25;26.50;33.60
19214;DHT22;9741;51.020;5.304;2023-07-22T15:40:54;26.40;33.60
19214;DHT22;9741;51.020;5.304;2023-07-22T15:43:21;26.40;33.80
19214;DHT22;9741;51.020;5.304;2023-07-22T15:45:48;26.40;33.90
19214;DHT22;9741;51.020;5.304;2023-07-22T15:48:15;26.30;33.90
19214;DHT22;9741;51.020;5.304;2023-07-22T15:50:43;26.30;34.00